East Wallingford, VT

1:44 AM EDT on September 01, 2016 (GMT -0400)
Sugar Hill | | Change Station

Elev 1650 ft 43.44 °N, 72.89 °W | Updated 42 seconds ago

Mostly Cloudy
Mostly Cloudy
66.2 °F
Feels Like 66.2 °F
N
5.8
Wind Variable Wind from West
Gusts 5.8 mph

Today
High -- | Low -- °F
--% Chance of Precip.
Yesterday
High -- | Low -- °F
Precip. -- in
Pressure 29.90 in
Visibility 10.0 miles
Clouds Scattered Clouds 4200 ft
Mostly Cloudy 6000 ft
Mostly Cloudy 9000 ft
Dew Point 63 °F
Humidity 89%
Rainfall 0.00 in
Snow Depth Not available.
6:16 AM 7:25 PM
Waning Crescent, 0% visible
METAR KRUT 010456Z AUTO 13004KT 10SM SCT042 BKN060 BKN090 21/17 A2987 RMK AO2 SLP125 T02060172 $
Pressure 29.90 in
Visibility 10.0 miles
Clouds Scattered Clouds 4200 ft
Mostly Cloudy 6000 ft
Mostly Cloudy 9000 ft
Dew Point 63 °F
Humidity 89%
Rainfall 0.00 in
Snow Depth Not available.
6:16 AM 7:25 PM
Waning Crescent, 0% visible
METAR KRUT 010456Z AUTO 13004KT 10SM SCT042 BKN060 BKN090 21/17 A2987 RMK AO2 SLP125 T02060172 $

10-Day Weather Forecast

Almanac

Astronomy

Sep. 01, 2016 Rise Set
Actual Time
Civil Twilight
Nautical Twilight
Astronomical Twilight
Moon
Length of Visible Light
Length of Day
Tomorrow will be .
, % of the Moon is Illuminated

Today's Extremes

State Highs State Lows

Community

WunderPhotos

Upload Photos

1,936,313 photos uploaded!

WunderBlog® & News

Nearby

Air Quality

  Air Quality AQ Index Pollutant
Not available.

Snow Depth

Station Depth Elevation

Earthquake Activity

City Distance Mag. Time & Date
Minimum magnitude displayed is 2.5.

Coastal Water Temperatures

Place Temperature

Stations

Nearby Weather Stations

Station Location Temp. Windchill Dew Point Humidity Wind Precip. Elev Updated Type
                   

Watches & Warnings

There are currently no watches in effect.